Time;durP1;ratioP1;P1;durP2;ratioP2;P2;SDS_P1;SDS_P2;PMS_P1;PMS_P2;Temp;Humidity;BMP_temperature;BMP_pressure;BME280_temperature;BME280_humidity;BME280_pressure;Samples;Min_cycle;Max_cycle;Signal;HPM_P1;HPM_P2
2022/07/03 00:01:17;;;;;;;2.67;1.15;;;20.30;99.90;;;;;;5158430;27;20108;-80
2022/07/03 00:03:42;;;;;;;5.43;1.40;;;20.30;99.90;;;;;;5158472;27;20042;-80
2022/07/03 00:06:08;;;;;;;2.57;1.30;;;20.20;99.90;;;;;;5158490;27;20041;-79
2022/07/03 00:08:34;;;;;;;5.13;1.40;;;20.20;99.90;;;;;;5158811;27;20110;-79
2022/07/03 00:10:59;;;;;;;3.50;1.23;;;20.00;99.90;;;;;;5158285;27;20034;-79
2022/07/03 00:13:25;;;;;;;2.87;1.33;;;20.00;99.90;;;;;;5158326;27;20085;-79
2022/07/03 00:15:50;;;;;;;5.33;1.70;;;20.00;99.90;;;;;;5139989;27;20043;-80
2022/07/03 00:18:16;;;;;;;4.97;1.37;;;20.00;99.90;;;;;;5158102;27;20049;-79
2022/07/03 00:20:47;;;;;;;4.00;1.67;;;19.90;99.90;;;;;;5158053;27;20039;-79
2022/07/03 00:23:17;;;;;;;5.30;1.60;;;19.90;99.90;;;;;;5158112;27;20053;-80
2022/07/03 00:25:43;;;;;;;3.67;1.85;;;19.90;99.90;;;;;;5139503;27;20045;-79
2022/07/03 00:28:09;;;;;;;;;;;19.80;99.90;;;;;;5158252;27;20049;-79
2022/07/03 00:30:35;;;;;;;4.13;1.90;;;19.70;99.90;;;;;;5157682;27;20286;-79
2022/07/03 00:33:05;;;;;;;5.85;1.88;;;19.70;99.90;;;;;;5157903;27;20046;-79
2022/07/03 00:35:32;;;;;;;4.57;1.85;;;19.70;99.90;;;;;;5157812;27;20050;-78
2022/07/03 00:37:58;;;;;;;5.38;2.10;;;19.70;99.90;;;;;;5157840;27;20390;-79
2022/07/03 00:40:24;;;;;;;3.70;2.10;;;19.60;99.90;;;;;;5157908;27;20035;-79
2022/07/03 00:42:53;;;;;;;3.63;2.00;;;19.60;99.90;;;;;;5157640;27;20099;-79
2022/07/03 00:45:22;;;;;;;3.13;1.83;;;19.60;99.90;;;;;;5139378;27;20043;-79
2022/07/03 00:47:48;;;;;;;5.43;2.30;;;19.60;99.90;;;;;;5157618;27;20081;-79
2022/07/03 00:50:14;;;;;;;2.80;1.98;;;19.60;99.90;;;;;;5157560;27;20439;-79
2022/07/03 00:52:46;;;;;;;4.70;2.05;;;19.60;99.90;;;;;;5157211;27;20494;-79
2022/07/03 00:55:16;;;;;;;3.78;1.73;;;19.60;99.90;;;;;;5157891;27;20428;-79
2022/07/03 00:57:47;;;;;;;2.92;1.83;;;19.50;99.90;;;;;;5157439;27;20478;-79
2022/07/03 01:00:15;;;;;;;4.60;1.95;;;19.50;99.90;;;;;;5157058;27;20038;-79
2022/07/03 01:02:40;;;;;;;3.22;1.80;;;19.50;99.90;;;;;;5157307;27;20046;-79
2022/07/03 01:05:16;;;;;;;3.20;1.73;;;19.40;99.90;;;;;;5157746;27;20302;-79
2022/07/03 01:08:03;;;;;;;5.38;1.90;;;19.40;99.90;;;;;;5157116;27;20141;-79
2022/07/03 01:10:53;;;;;;;3.08;1.80;;;19.40;99.90;;;;;;5157243;27;20043;-80
2022/07/03 01:13:38;;;;;;;4.82;1.77;;;19.40;99.90;;;;;;5157140;27;20043;-79
2022/07/03 01:16:18;;;;;;;3.72;1.90;;;19.30;99.90;;;;;;5139053;27;20078;-79
2022/07/03 01:18:49;;;;;;;4.18;1.80;;;19.30;99.90;;;;;;5157027;27;20049;-79
2022/07/03 01:21:33;;;;;;;4.93;1.80;;;19.20;99.90;;;;;;5156930;27;20078;-80
2022/07/03 01:23:58;;;;;;;3.83;1.70;;;19.20;99.90;;;;;;5156842;27;20042;-79
2022/07/03 01:26:27;;;;;;;2.97;1.70;;;19.10;99.90;;;;;;5157210;27;20155;-79
2022/07/03 01:28:54;;;;;;;2.80;1.70;;;19.10;99.90;;;;;;5156123;27;20068;-80
2022/07/03 01:31:21;;;;;;;3.00;1.70;;;19.00;99.90;;;;;;5156700;27;20046;-80
2022/07/03 01:33:51;;;;;;;4.18;1.70;;;19.00;99.90;;;;;;5156622;27;20478;-79
2022/07/03 01:36:20;;;;;;;3.10;1.60;;;18.90;99.90;;;;;;5156510;27;20049;-79
2022/07/03 01:38:48;;;;;;;3.35;1.70;;;18.90;99.90;;;;;;5156255;27;20478;-79
2022/07/03 01:41:14;;;;;;;4.25;1.80;;;18.90;99.90;;;;;;5137795;27;20500;-79
2022/07/03 01:43:46;;;;;;;4.70;1.77;;;18.80;99.90;;;;;;5156540;27;20058;-79
2022/07/03 01:46:14;;;;;;;4.35;1.70;;;18.80;99.90;;;;;;5156535;27;20046;-79
2022/07/03 01:48:42;;;;;;;3.63;1.80;;;18.80;99.90;;;;;;5156075;27;20517;-79
2022/07/03 01:51:13;;;;;;;3.53;1.70;;;18.70;99.90;;;;;;5156338;27;20438;-79
2022/07/03 01:53:44;;;;;;;3.13;1.70;;;18.60;99.90;;;;;;5156266;27;20130;-79
2022/07/03 01:56:11;;;;;;;2.35;1.60;;;18.50;99.90;;;;;;5156538;27;20443;-79
2022/07/03 01:58:36;;;;;;;6.78;1.92;;;18.40;99.90;;;;;;5156219;27;20043;-79
2022/07/03 02:01:33;;;;;;;3.13;1.90;;;18.50;99.90;;;;;;5156102;27;20069;-79
2022/07/03 02:04:14;;;;;;;3.65;1.92;;;18.40;99.90;;;;;;5138099;27;20042;-80
2022/07/03 02:06:53;;;;;;;5.40;1.90;;;18.40;99.90;;;;;;5155826;27;20078;-80
2022/07/03 02:09:26;;;;;;;3.63;1.73;;;18.40;99.90;;;;;;5156174;27;20099;-80
2022/07/03 02:11:52;;;;;;;4.57;1.92;;;18.30;99.90;;;;;;5156529;27;20053;-80
2022/07/03 02:14:39;;;;;;;3.30;1.73;;;18.20;99.90;;;;;;5155932;27;20031;-80
2022/07/03 02:17:20;;;;;;;5.55;1.90;;;18.20;99.90;;;;;;5156007;27;20046;-80
2022/07/03 02:19:57;;;;;;;4.07;2.10;;;18.10;99.90;;;;;;5155732;27;20042;-80
2022/07/03 02:22:31;;;;;;;2.60;1.85;;;18.10;99.90;;;;;;5138387;27;20042;-80
2022/07/03 02:25:05;;;;;;;3.65;1.92;;;18.00;99.90;;;;;;5137661;27;20043;-80
2022/07/03 02:27:50;;;;;;;4.30;2.17;;;17.90;99.90;;;;;;5155707;27;20042;-80
2022/07/03 02:30:16;;;;;;;4.22;1.83;;;17.90;99.90;;;;;;5155835;27;20057;-80
2022/07/03 02:32:49;;;;;;;3.13;1.83;;;17.80;99.90;;;;;;5155346;27;20059;-80
2022/07/03 02:35:26;;;;;;;3.83;1.90;;;17.80;99.90;;;;;;5155633;27;20046;-80
2022/07/03 02:37:55;;;;;;;3.85;2.00;;;17.70;99.90;;;;;;5156055;27;20078;-80
2022/07/03 02:40:25;;;;;;;4.00;2.30;;;17.60;99.90;;;;;;5154491;27;20035;-80
2022/07/03 02:43:16;;;;;;;3.33;1.95;;;17.60;99.90;;;;;;5155523;27;20042;-80
2022/07/03 02:46:48;;;;;;;4.35;2.20;;;17.60;99.90;;;;;;5155961;27;20103;-80
2022/07/03 02:48:51;;;;;;;4.15;2.15;;;17.50;99.90;;;;;;5155245;27;20047;-80
2022/07/03 02:51:35;;;;;;;5.82;1.95;;;17.50;99.90;;;;;;5137255;27;20137;-80
2022/07/03 02:54:09;;;;;;;4.00;2.00;;;17.40;99.90;;;;;;5155688;27;20156;-80
2022/07/03 02:56:38;;;;;;;4.75;2.17;;;17.40;99.90;;;;;;5155740;27;20050;-80
2022/07/03 02:59:19;;;;;;;3.17;1.83;;;17.40;99.90;;;;;;5155318;27;20066;-80
2022/07/03 03:01:54;;;;;;;4.13;2.03;;;17.30;99.90;;;;;;5155237;27;20038;-80
2022/07/03 03:04:34;;;;;;;5.03;2.22;;;17.20;99.90;;;;;;5155826;27;20091;-80
2022/07/03 03:07:14;;;;;;;3.20;2.00;;;17.20;99.90;;;;;;5133229;28;20191;-80
2022/07/03 03:09:44;;;;;;;4.10;2.17;;;17.10;99.90;;;;;;5134772;28;20047;-80
2022/07/03 03:12:11;;;;;;;4.47;2.00;;;17.10;99.90;;;;;;5133437;28;20356;-80
2022/07/03 03:14:47;;;;;;;3.88;2.40;;;17.10;99.90;;;;;;5134235;28;20039;-80
2022/07/03 03:17:24;;;;;;;4.43;2.80;;;17.00;99.90;;;;;;5134479;28;20050;-80
2022/07/03 03:19:55;;;;;;;2.83;2.30;;;16.90;99.90;;;;;;5134438;28;20122;-80
2022/07/03 03:22:48;;;;;;;3.60;2.30;;;16.90;99.90;;;;;;5134474;28;20039;-80
2022/07/03 03:25:15;;;;;;;4.38;2.60;;;16.80;99.90;;;;;;5134864;28;20078;-80
2022/07/03 03:27:40;;;;;;;4.13;2.13;;;16.80;99.90;;;;;;5134710;28;20100;-80
2022/07/03 03:30:07;;;;;;;3.40;2.07;;;16.70;99.90;;;;;;5134208;28;20035;-80
2022/07/03 03:32:35;;;;;;;2.53;2.13;;;16.70;99.90;;;;;;5134319;28;20040;-80
2022/07/03 03:35:01;;;;;;;3.50;2.47;;;16.60;99.90;;;;;;5134336;28;20078;-80
2022/07/03 03:37:27;;;;;;;3.15;2.30;;;16.60;99.90;;;;;;5134188;28;20092;-80
2022/07/03 03:39:53;;;;;;;3.90;2.20;;;16.60;99.90;;;;;;5134127;28;20506;-80
2022/07/03 03:42:18;;;;;;;4.30;2.50;;;16.60;99.90;;;;;;5134311;28;20383;-80
2022/07/03 03:44:44;;;;;;;4.13;2.47;;;16.60;99.90;;;;;;5134232;28;20121;-80
2022/07/03 03:47:10;;;;;;;3.80;2.07;;;16.50;99.90;;;;;;5134198;28;20039;-80
2022/07/03 03:49:35;;;;;;;4.23;2.43;;;16.50;99.90;;;;;;5133910;28;20135;-80
2022/07/03 03:52:02;;;;;;;4.00;2.30;;;16.40;99.90;;;;;;5135297;27;20049;-80
2022/07/03 03:54:28;;;;;;;4.05;2.53;;;16.50;99.90;;;;;;5138399;27;20122;-80
2022/07/03 03:56:53;;;;;;;4.63;2.53;;;16.60;99.90;;;;;;5138266;27;20146;-80
2022/07/03 03:59:19;;;;;;;8.30;3.33;;;16.50;99.90;;;;;;5137902;27;20452;-80
2022/07/03 04:01:46;;;;;;;4.13;3.30;;;16.50;99.90;;;;;;5137761;27;20126;-80
2022/07/03 04:04:12;;;;;;;5.32;3.80;;;16.50;99.90;;;;;;5137757;27;20050;-80
2022/07/03 04:06:37;;;;;;;7.03;4.10;;;16.50;99.90;;;;;;5139793;27;20499;-80
2022/07/03 04:09:03;;;;;;;5.73;3.97;;;16.50;99.90;;;;;;5158466;27;20122;-80
2022/07/03 04:11:29;;;;;;;5.37;4.37;;;16.60;99.90;;;;;;5158337;27;20039;-80
2022/07/03 04:13:54;;;;;;;4.97;4.47;;;16.60;99.90;;;;;;5158360;27;20086;-80
2022/07/03 04:16:20;;;;;;;5.50;4.37;;;16.70;99.90;;;;;;5158221;27;20042;-80
2022/07/03 04:18:45;;;;;;;5.73;4.40;;;16.80;99.90;;;;;;5158227;27;20046;-80
2022/07/03 04:21:11;;;;;;;5.07;4.10;;;16.70;99.90;;;;;;5158071;27;20050;-80
2022/07/03 04:23:37;;;;;;;5.57;4.87;;;16.70;99.90;;;;;;5158112;27;20133;-80
2022/07/03 04:26:05;;;;;;;7.07;4.80;;;16.80;99.90;;;;;;5158100;27;20039;-80
2022/07/03 04:28:31;;;;;;;5.47;4.00;;;16.90;99.90;;;;;;5158009;27;20049;-80
2022/07/03 04:30:57;;;;;;;5.00;4.50;;;16.90;99.90;;;;;;5157987;27;20047;-80
2022/07/03 04:33:23;;;;;;;5.30;4.23;;;17.00;99.90;;;;;;5158124;27;20332;-80
2022/07/03 04:35:48;;;;;;;6.57;4.10;;;17.10;99.90;;;;;;5157783;27;20046;-80
2022/07/03 04:38:14;;;;;;;7.37;4.47;;;17.20;99.90;;;;;;5157887;27;20119;-80
2022/07/03 04:40:40;;;;;;;4.87;4.20;;;17.30;99.90;;;;;;5157700;27;20047;-80
2022/07/03 04:43:05;;;;;;;6.13;4.57;;;17.40;99.90;;;;;;5157788;27;20039;-78
2022/07/03 04:45:31;;;;;;;6.53;4.60;;;17.40;99.90;;;;;;5157721;27;20122;-79
2022/07/03 04:47:56;;;;;;;6.57;4.27;;;17.50;99.90;;;;;;5157665;27;20046;-79
2022/07/03 04:50:22;;;;;;;5.50;4.00;;;17.50;99.90;;;;;;5157628;27;20409;-79
2022/07/03 04:52:48;;;;;;;7.03;4.27;;;17.60;99.90;;;;;;5157523;27;20043;-79
2022/07/03 04:55:13;;;;;;;6.00;3.83;;;17.50;99.90;;;;;;5157498;27;20050;-79
2022/07/03 04:57:39;;;;;;;4.97;3.90;;;17.60;99.90;;;;;;5157489;27;20039;-80
2022/07/03 05:00:06;;;;;;;5.63;3.90;;;17.90;99.90;;;;;;5157365;27;20078;-80
2022/07/03 05:02:31;;;;;;;5.85;4.20;;;17.60;99.90;;;;;;5157408;27;20053;-80
2022/07/03 05:04:57;;;;;;;5.87;4.10;;;17.60;99.90;;;;;;5156390;27;20478;-80
2022/07/03 05:07:22;;;;;;;6.33;4.20;;;17.60;99.90;;;;;;5157193;27;20141;-80
2022/07/03 05:09:48;;;;;;;5.97;4.30;;;17.60;99.90;;;;;;5157218;27;20054;-80
2022/07/03 05:12:13;;;;;;;5.87;4.00;;;17.60;99.90;;;;;;5157355;27;20086;-80
2022/07/03 05:14:39;;;;;;;5.90;4.30;;;17.60;99.90;;;;;;5157150;27;20039;-80
2022/07/03 05:17:04;;;;;;;4.77;4.20;;;17.60;99.90;;;;;;5157273;27;20047;-79
2022/07/03 05:19:30;;;;;;;6.97;4.57;;;17.60;99.90;;;;;;5157142;27;20053;-80
2022/07/03 05:21:56;;;;;;;6.53;4.43;;;17.70;99.90;;;;;;5138360;27;20039;-80
2022/07/03 05:24:21;;;;;;;6.37;4.17;;;17.50;99.90;;;;;;5138432;27;20060;-80
2022/07/03 05:26:47;;;;;;;7.67;4.40;;;17.50;99.90;;;;;;5157282;27;20085;-79
2022/07/03 05:29:12;;;;;;;7.47;5.13;;;17.50;99.90;;;;;;5156798;27;20085;-79
2022/07/03 05:31:38;;;;;;;5.43;4.40;;;17.50;99.90;;;;;;5156803;27;20050;-79
2022/07/03 05:34:03;;;;;;;7.13;4.70;;;17.50;99.90;;;;;;5156644;27;20496;-79
2022/07/03 05:36:29;;;;;;;8.47;5.03;;;17.50;99.90;;;;;;5138423;27;20091;-79
2022/07/03 05:41:38;;;;;;;6.90;4.28;;;18.00;99.90;;;;;;5156680;27;20130;-79
2022/07/03 05:44:04;;;;;;;7.10;4.47;;;18.00;99.90;;;;;;5156483;27;20455;-79
2022/07/03 05:46:30;;;;;;;4.83;4.23;;;18.20;99.90;;;;;;5156473;27;20038;-80
2022/07/03 05:48:55;;;;;;;4.70;4.10;;;18.40;99.90;;;;;;5138140;27;20035;-80
2022/07/03 05:51:21;;;;;;;6.77;4.63;;;18.30;99.90;;;;;;5156343;27;20043;-79
2022/07/03 05:53:46;;;;;;;6.20;4.50;;;18.70;99.90;;;;;;5156294;27;20046;-80
2022/07/03 05:56:12;;;;;;;10.10;4.60;;;19.00;99.90;;;;;;5138530;27;20095;-80
2022/07/03 05:58:37;;;;;;;6.90;3.80;;;19.30;99.90;;;;;;5156245;27;20394;-80
2022/07/03 06:01:03;;;;;;;6.43;3.77;;;19.70;99.90;;;;;;5156108;27;20098;-80
2022/07/03 06:03:28;;;;;;;6.53;3.63;;;19.90;99.90;;;;;;5155824;27;20057;-80
2022/07/03 06:05:54;;;;;;;4.00;3.20;;;20.30;99.90;;;;;;5137582;27;20039;-80
2022/07/03 06:08:20;;;;;;;5.57;3.30;;;20.60;99.90;;;;;;5156297;27;20586;-80
2022/07/03 06:10:45;;;;;;;4.77;3.10;;;20.90;99.90;;;;;;5156051;27;20096;-80
2022/07/03 06:13:11;;;;;;;5.03;3.03;;;21.10;99.90;;;;;;5155989;27;20594;-80
2022/07/03 06:15:36;;;;;;;5.27;2.83;;;21.40;99.90;;;;;;5137499;27;20053;-80
2022/07/03 06:18:02;;;;;;;3.97;2.50;;;21.60;99.90;;;;;;5137560;27;20046;-79
2022/07/03 06:20:28;;;;;;;6.23;2.67;;;21.80;99.90;;;;;;5155762;27;20443;-80
2022/07/03 06:22:53;;;;;;;4.60;2.33;;;22.00;99.90;;;;;;5155906;27;20034;-79
2022/07/03 06:25:19;;;;;;;5.23;2.47;;;22.20;99.90;;;;;;5155876;27;20047;-79
2022/07/03 06:27:44;;;;;;;3.13;2.20;;;22.30;99.90;;;;;;5155769;27;20504;-79
2022/07/03 06:30:10;;;;;;;3.80;2.10;;;22.40;99.90;;;;;;5155804;27;20039;-79
2022/07/03 06:32:36;;;;;;;3.35;1.92;;;22.30;99.90;;;;;;5155741;27;20031;-79
2022/07/03 06:35:02;;;;;;;6.17;2.27;;;22.30;99.90;;;;;;5137093;27;20114;-79
2022/07/03 06:37:27;;;;;;;5.27;2.10;;;22.40;99.90;;;;;;5155632;27;20109;-79
2022/07/03 06:39:53;;;;;;;3.70;2.00;;;22.40;99.90;;;;;;5155564;27;20095;-79
2022/07/03 06:42:18;;;;;;;7.37;2.00;;;22.50;99.90;;;;;;5155609;27;20038;-79
2022/07/03 06:44:44;;;;;;;4.40;1.60;;;22.50;99.90;;;;;;5155578;27;20039;-79
2022/07/03 06:47:10;;;;;;;3.08;1.60;;;22.60;99.90;;;;;;5155542;27;20066;-80
2022/07/03 06:49:36;;;;;;;4.57;1.58;;;22.70;99.90;;;;;;5155475;27;20035;-80
2022/07/03 06:52:02;;;;;;;3.27;1.53;;;22.60;99.90;;;;;;5155435;27;20045;-81
2022/07/03 06:54:27;;;;;;;2.03;1.20;;;22.60;99.90;;;;;;5155220;27;20042;-80
2022/07/03 06:56:53;;;;;;;3.30;1.50;;;22.60;99.90;;;;;;5155463;27;20042;-80
2022/07/03 06:59:19;;;;;;;2.93;1.63;;;22.70;99.90;;;;;;5155431;27;20393;-80
2022/07/03 07:01:44;;;;;;;2.83;1.30;;;22.90;99.90;;;;;;5155268;27;20039;-81
2022/07/03 07:04:10;;;;;;;3.33;1.20;;;22.80;99.90;;;;;;5136915;27;20030;-80
2022/07/03 07:06:36;;;;;;;3.90;1.53;;;22.80;99.90;;;;;;5155200;27;20027;-80
2022/07/03 07:09:03;;;;;;;4.37;1.50;;;22.90;99.90;;;;;;5155008;27;20284;-80
2022/07/03 07:11:29;;;;;;;3.03;1.23;;;23.00;99.90;;;;;;5155298;27;20368;-80
2022/07/03 07:13:54;;;;;;;4.10;1.17;;;23.10;99.90;;;;;;5136918;27;20095;-80
2022/07/03 07:16:20;;;;;;;2.67;1.20;;;23.10;99.90;;;;;;5155233;27;20069;-80
2022/07/03 07:18:45;;;;;;;3.70;1.20;;;23.20;99.90;;;;;;5155272;27;20043;-80
2022/07/03 07:21:11;;;;;;;4.30;1.30;;;23.30;99.90;;;;;;5155108;27;20046;-80
2022/07/03 07:23:37;;;;;;;2.67;1.10;;;23.40;99.90;;;;;;5154938;27;20038;-80
2022/07/03 07:26:03;;;;;;;4.10;1.40;;;23.50;99.90;;;;;;5155212;27;20109;-80
2022/07/03 07:28:28;;;;;;;6.00;1.73;;;23.60;99.90;;;;;;5158967;27;20034;-80
2022/07/03 07:30:56;;;;;;;3.20;1.00;;;23.70;99.90;;;;;;5159192;27;20094;-81
2022/07/03 07:33:22;;;;;;;4.40;1.23;;;23.80;99.90;;;;;;5159161;27;20057;-80
2022/07/03 07:35:48;;;;;;;3.63;1.40;;;23.80;99.90;;;;;;5158989;27;20484;-80
2022/07/03 07:38:14;;;;;;;3.75;1.00;;;23.90;99.90;;;;;;5159095;27;20117;-80
2022/07/03 07:40:39;;;;;;;3.83;1.42;;;23.90;99.90;;;;;;5158963;27;20118;-80
2022/07/03 07:43:05;;;;;;;2.80;1.43;;;23.80;99.90;;;;;;5158955;27;20042;-80
2022/07/03 07:45:31;;;;;;;3.20;1.40;;;23.80;99.90;;;;;;5140466;27;20042;-80
2022/07/03 07:47:56;;;;;;;4.73;1.80;;;23.80;99.90;;;;;;5140325;27;20034;-80
2022/07/03 07:50:22;;;;;;;2.40;1.50;;;23.80;99.90;;;;;;5158768;27;20166;-80
2022/07/03 07:52:48;;;;;;;5.60;1.43;;;23.80;99.90;;;;;;5158783;27;20126;-79
2022/07/03 07:55:13;;;;;;;4.07;1.33;;;23.70;99.90;;;;;;5158721;27;20530;-80
2022/07/03 07:57:40;;;;;;;4.60;1.70;;;23.60;99.90;;;;;;5158741;27;20042;-80
2022/07/03 08:00:21;;;;;;;3.78;1.40;;;23.80;99.90;;;;;;5158574;27;20058;-79
2022/07/03 08:05:37;;;;;;;3.65;1.45;;;23.90;99.90;;;;;;5158520;27;20058;-79
2022/07/03 08:08:08;;;;;;;4.82;1.40;;;24.00;99.90;;;;;;5158191;27;20107;-80
2022/07/03 08:10:35;;;;;;;3.90;1.30;;;24.00;99.90;;;;;;5158439;27;20062;-80
2022/07/03 08:13:01;;;;;;;2.38;1.20;;;24.00;99.90;;;;;;5158222;27;20394;-79
2022/07/03 08:15:27;;;;;;;3.93;1.00;;;24.00;99.90;;;;;;5158274;27;20035;-79
2022/07/03 08:17:52;;;;;;;5.80;1.20;;;24.10;99.90;;;;;;5158359;27;20034;-80
2022/07/03 08:20:18;;;;;;;3.90;1.50;;;24.20;99.90;;;;;;5158199;27;20103;-80
2022/07/03 08:22:43;;;;;;;2.53;1.23;;;24.30;99.90;;;;;;5158154;27;20035;-80
2022/07/03 08:25:09;;;;;;;3.23;1.20;;;24.30;99.90;;;;;;5157858;27;20027;-80
2022/07/03 08:27:34;;;;;;;2.27;1.00;;;24.20;99.80;;;;;;5158116;27;20087;-80
2022/07/03 08:30:00;;;;;;;4.33;1.33;;;24.30;99.90;;;;;;5158072;27;20451;-80
2022/07/03 08:32:26;;;;;;;5.40;1.37;;;24.40;99.90;;;;;;5158046;27;20034;-80
2022/07/03 08:34:51;;;;;;;4.27;1.30;;;24.40;99.90;;;;;;5158003;27;20099;-80
2022/07/03 08:37:17;;;;;;;4.30;1.67;;;24.60;99.90;;;;;;5157839;27;20471;-80
2022/07/03 08:39:42;;;;;;;4.23;1.37;;;24.40;99.90;;;;;;5157800;27;20363;-80
2022/07/03 08:42:11;;;;;;;3.27;1.80;;;24.50;99.80;;;;;;5139234;27;20092;-80
2022/07/03 08:44:37;;;;;;;5.28;1.52;;;24.60;99.40;;;;;;5157471;27;20031;-80
2022/07/03 08:47:06;;;;;;;2.55;1.60;;;24.50;99.90;;;;;;5157764;27;20035;-80
2022/07/03 08:49:32;;;;;;;4.57;1.65;;;24.60;99.60;;;;;;5157701;27;20055;-80
2022/07/03 08:52:00;;;;;;;4.00;1.47;;;24.70;99.90;;;;;;5157630;27;20479;-80
2022/07/03 08:54:26;;;;;;;5.65;1.40;;;24.80;99.70;;;;;;5157589;27;20039;-80
2022/07/03 08:56:52;;;;;;;5.87;1.80;;;24.80;99.60;;;;;;5157676;27;20171;-80
2022/07/03 08:59:19;;;;;;;4.00;1.60;;;24.80;99.60;;;;;;5157424;27;20437;-80
2022/07/03 09:01:46;;;;;;;4.15;1.60;;;24.90;99.40;;;;;;5157158;27;20039;-80
2022/07/03 09:04:15;;;;;;;5.25;1.67;;;24.90;98.90;;;;;;5157212;27;20039;-80
2022/07/03 09:06:42;;;;;;;3.55;1.45;;;25.00;99.20;;;;;;5157320;27;20041;-80
2022/07/03 09:09:10;;;;;;;;;;;25.10;99.70;;;;;;5157559;27;20055;-80
2022/07/03 09:11:39;;;;;;;3.95;1.90;;;25.10;99.30;;;;;;5157229;27;19921;-81
2022/07/03 09:14:06;;;;;;;5.78;2.13;;;25.20;99.90;;;;;;5157073;27;20030;-80
2022/07/03 09:16:36;;;;;;;4.88;2.40;;;25.30;99.90;;;;;;5157169;27;20047;-80
2022/07/03 09:19:05;;;;;;;8.25;2.20;;;25.20;99.30;;;;;;5157105;27;20038;-80
2022/07/03 09:21:41;;;;;;;5.60;1.70;;;25.20;99.90;;;;;;5157053;27;20447;-80
2022/07/03 09:24:09;;;;;;;2.55;1.23;;;25.20;99.60;;;;;;5156989;27;20030;-81
2022/07/03 09:26:36;;;;;;;5.15;1.73;;;25.20;99.30;;;;;;5156861;27;20035;-80
2022/07/03 09:29:03;;;;;;;4.47;1.40;;;25.20;97.90;;;;;;5156827;27;20035;-80
2022/07/03 09:31:30;;;;;;;5.30;1.38;;;25.30;96.70;;;;;;5156820;27;20113;-80
2022/07/03 09:34:09;;;;;;;5.13;1.23;;;25.30;96.60;;;;;;5156760;27;20089;-79
2022/07/03 09:36:48;;;;;;;3.35;1.50;;;25.20;96.30;;;;;;5156742;27;20034;-79
2022/07/03 09:39:16;;;;;;;3.78;1.45;;;25.20;97.70;;;;;;5156627;27;20039;-80
2022/07/03 09:42:04;;;;;;;6.15;1.42;;;25.30;98.40;;;;;;5156933;27;20125;-79
2022/07/03 09:44:45;;;;;;;2.55;1.23;;;25.40;98.50;;;;;;5156632;27;20117;-79
2022/07/03 09:47:23;;;;;;;4.68;1.60;;;25.40;99.40;;;;;;5156558;27;20039;-79
2022/07/03 09:49:57;;;;;;;5.10;2.10;;;25.20;99.40;;;;;;5155953;27;20039;-79
2022/07/03 09:52:36;;;;;;;3.05;1.27;;;25.00;99.50;;;;;;5156456;27;20118;-80
2022/07/03 09:55:08;;;;;;;2.40;1.33;;;24.80;99.40;;;;;;5137998;27;20118;-79
2022/07/03 09:57:34;;;;;;;3.58;1.10;;;24.50;98.80;;;;;;5156338;27;20035;-79
2022/07/03 10:00:08;;;;;;;3.03;1.42;;;24.30;99.10;;;;;;5156123;27;20383;-80
2022/07/03 10:02:34;;;;;;;2.70;1.00;;;24.40;99.00;;;;;;5156235;27;20065;-79
2022/07/03 10:05:12;;;;;;;3.23;1.30;;;24.40;99.40;;;;;;5156245;27;20547;-79
2022/07/03 10:08:11;;;;;;;4.20;1.00;;;24.50;99.40;;;;;;5137151;27;20061;-79
2022/07/03 10:10:41;;;;;;;3.25;1.25;;;24.60;98.20;;;;;;5099453;27;20516;-79
2022/07/03 10:13:07;;;;;;;3.97;1.30;;;24.80;98.20;;;;;;5155897;27;20493;-80
2022/07/03 10:15:37;;;;;;;4.33;1.20;;;24.90;98.20;;;;;;5155848;27;20086;-79
2022/07/03 10:18:05;;;;;;;2.22;1.10;;;24.80;97.60;;;;;;5155873;27;20288;-80
2022/07/03 10:20:35;;;;;;;4.45;1.00;;;24.90;96.90;;;;;;5155879;27;20039;-80
2022/07/03 10:23:02;;;;;;;3.33;0.90;;;25.00;97.30;;;;;;5155851;27;20382;-79
2022/07/03 10:25:27;;;;;;;4.65;1.00;;;25.00;96.80;;;;;;5155858;27;20095;-80
2022/07/03 10:27:54;;;;;;;1.53;0.70;;;25.20;96.70;;;;;;5155581;27;20386;-80
2022/07/03 10:30:21;;;;;;;2.35;0.88;;;25.20;96.10;;;;;;5155835;27;20046;-80
2022/07/03 10:32:49;;;;;;;4.63;1.10;;;25.30;95.60;;;;;;5155545;27;20390;-80
2022/07/03 10:35:25;;;;;;;4.22;1.10;;;25.40;94.90;;;;;;5155717;27;20035;-80
2022/07/03 10:38:03;;;;;;;1.95;0.75;;;25.40;94.80;;;;;;5155656;27;20042;-80
2022/07/03 10:46:21;;;;;;;2.95;1.00;;;25.50;93.70;;;;;;5155599;27;20047;-80
2022/07/03 10:49:06;;;;;;;3.30;0.80;;;25.60;94.70;;;;;;5155587;27;20043;-80
2022/07/03 10:51:54;;;;;;;2.33;1.10;;;25.70;92.70;;;;;;5155548;27;20046;-80
2022/07/03 10:54:30;;;;;;;3.28;1.00;;;25.70;91.50;;;;;;5138631;27;20082;-80
2022/07/03 10:56:58;;;;;;;2.70;1.00;;;25.70;93.10;;;;;;5155499;27;20034;-80
2022/07/03 10:59:47;;;;;;;1.92;0.80;;;25.70;92.40;;;;;;5155357;27;20045;-80
2022/07/03 11:02:38;;;;;;;1.65;0.75;;;25.80;93.00;;;;;;5156731;27;20078;-80
2022/07/03 11:05:18;;;;;;;1.85;0.80;;;25.80;91.80;;;;;;5159434;27;20168;-80
2022/07/03 11:07:55;;;;;;;2.10;0.90;;;25.90;92.90;;;;;;5159404;27;20130;-80
2022/07/03 11:10:23;;;;;;;2.42;0.70;;;26.00;93.40;;;;;;5159613;27;20121;-80
2022/07/03 11:13:09;;;;;;;1.40;0.77;;;26.00;93.20;;;;;;5159535;27;20035;-80
2022/07/03 11:15:55;;;;;;;3.92;0.80;;;25.90;92.20;;;;;;5159305;27;20550;-79
2022/07/03 11:18:23;;;;;;;3.17;0.80;;;25.80;91.60;;;;;;5158522;27;20042;-80
2022/07/03 11:20:52;;;;;;;1.90;0.60;;;25.70;92.60;;;;;;5159357;27;20070;-80
2022/07/03 11:23:26;;;;;;;3.70;0.70;;;25.60;92.20;;;;;;5159333;27;20077;-79
2022/07/03 11:25:54;;;;;;;2.03;0.77;;;25.70;92.20;;;;;;5159333;27;20076;-79
2022/07/03 11:28:32;;;;;;;2.50;0.80;;;25.70;92.90;;;;;;5159278;27;20086;-80
2022/07/03 11:31:18;;;;;;;2.28;0.73;;;25.80;91.80;;;;;;5159200;27;20043;-80
2022/07/03 11:33:45;;;;;;;2.47;0.70;;;25.90;91.40;;;;;;5159266;27;20043;-80
2022/07/03 11:36:17;;;;;;;2.45;0.60;;;26.00;91.60;;;;;;5158823;27;20035;-80
2022/07/03 11:38:57;;;;;;;3.50;1.00;;;25.90;91.60;;;;;;5159130;27;20042;-80
2022/07/03 11:41:25;;;;;;;2.47;0.70;;;25.90;92.50;;;;;;5159054;27;20087;-80
2022/07/03 11:43:54;;;;;;;4.10;0.77;;;26.00;92.10;;;;;;5158938;27;20527;-80
2022/07/03 11:46:22;;;;;;;2.70;0.80;;;26.10;92.00;;;;;;5159028;27;20035;-79
2022/07/03 11:48:48;;;;;;;1.58;0.88;;;26.20;91.80;;;;;;5158922;27;20151;-79
2022/07/03 11:51:14;;;;;;;3.47;0.80;;;26.20;92.30;;;;;;5158955;27;20500;-79
2022/07/03 11:53:40;;;;;;;2.60;0.80;;;26.30;92.00;;;;;;5140420;27;20502;-79
2022/07/03 11:56:12;;;;;;;1.92;0.90;;;26.40;92.40;;;;;;5158838;27;20035;-80
2022/07/03 11:58:41;;;;;;;2.38;0.88;;;26.40;92.40;;;;;;5158839;27;20122;-80
2022/07/03 12:01:26;;;;;;;1.67;0.90;;;26.50;92.40;;;;;;5158642;27;20117;-80
2022/07/03 12:03:53;;;;;;;1.98;0.90;;;26.50;92.70;;;;;;5158660;27;20042;-80
2022/07/03 12:06:20;;;;;;;2.30;0.70;;;26.50;93.10;;;;;;5158833;27;20034;-79
2022/07/03 12:08:46;;;;;;;1.05;0.60;;;26.60;92.40;;;;;;5158271;27;20043;-80
2022/07/03 12:11:14;;;;;;;1.92;0.80;;;26.60;92.90;;;;;;5158535;27;20561;-80
2022/07/03 12:13:40;;;;;;;2.03;0.70;;;26.60;92.70;;;;;;5157831;27;20031;-79
2022/07/03 12:16:07;;;;;;;3.10;1.00;;;26.70;92.30;;;;;;5158335;27;20038;-79
2022/07/03 12:18:45;;;;;;;2.63;0.70;;;26.80;92.00;;;;;;5158241;27;20083;-80
2022/07/03 12:21:11;;;;;;;2.35;0.80;;;26.90;91.90;;;;;;5158347;27;20035;-80
2022/07/03 12:23:45;;;;;;;1.45;0.77;;;26.90;91.40;;;;;;5158239;27;20106;-79
2022/07/03 12:26:11;;;;;;;1.55;0.75;;;27.00;91.10;;;;;;5158242;27;20042;-80
2022/07/03 12:28:37;;;;;;;2.10;0.70;;;27.00;91.10;;;;;;5158499;27;20042;-80
2022/07/03 12:31:04;;;;;;;2.53;0.70;;;26.90;91.20;;;;;;5158315;27;20030;-79
2022/07/03 12:33:34;;;;;;;1.95;0.60;;;26.90;91.20;;;;;;5158128;27;20038;-79
2022/07/03 12:36:08;;;;;;;3.03;0.95;;;26.90;91.60;;;;;;5158221;27;20092;-80
2022/07/03 12:38:36;;;;;;;2.20;0.70;;;26.90;91.50;;;;;;5158079;27;20038;-79
2022/07/03 12:41:06;;;;;;;2.58;1.00;;;26.90;91.00;;;;;;5157805;27;20074;-79
2022/07/03 12:43:42;;;;;;;2.03;0.70;;;26.90;91.20;;;;;;5158022;27;20431;-80
2022/07/03 12:46:24;;;;;;;2.40;0.70;;;26.90;91.70;;;;;;5157954;27;20043;-79
2022/07/03 12:48:51;;;;;;;2.72;0.70;;;27.00;91.30;;;;;;5158016;27;20027;-80
2022/07/03 12:51:37;;;;;;;3.30;0.70;;;27.10;91.20;;;;;;5157549;27;20046;-79
2022/07/03 12:54:03;;;;;;;1.65;0.65;;;27.20;91.10;;;;;;5138909;27;20383;-80
2022/07/03 12:56:29;;;;;;;2.27;0.80;;;27.10;90.30;;;;;;5157629;27;20042;-80
2022/07/03 13:01:39;;;;;;;1.95;0.65;;;26.70;90.50;;;;;;5157401;27;20076;-80
2022/07/03 13:04:08;;;;;;;1.90;0.80;;;26.70;90.70;;;;;;5157136;27;20030;-80
2022/07/03 13:06:34;;;;;;;2.13;0.90;;;26.60;91.00;;;;;;5138855;27;20042;-79
2022/07/03 13:09:03;;;;;;;1.93;0.70;;;26.60;91.30;;;;;;5156995;27;20054;-79
2022/07/03 13:11:38;;;;;;;2.08;0.70;;;26.40;91.20;;;;;;5157111;27;20268;-79
2022/07/03 13:14:07;;;;;;;2.75;0.70;;;26.40;92.50;;;;;;5138417;27;20049;-79